createdAt,value
2022-12-14T00:01:27.056Z,57.83
2022-12-14T00:03:54.877Z,60.20
2022-12-14T00:06:23.313Z,60.40
2022-12-14T00:08:52.239Z,51.53
2022-12-14T00:11:20.064Z,56.85
2022-12-14T00:13:49.128Z,61.13
2022-12-14T00:16:18.038Z,63.70
2022-12-14T00:18:49.316Z,64.28
2022-12-14T00:21:16.878Z,55.78
2022-12-14T00:23:45.185Z,71.28
2022-12-14T00:26:23.211Z,62.22
2022-12-14T00:28:52.300Z,62.53
2022-12-14T00:31:19.847Z,57.47
2022-12-14T00:33:46.792Z,50.45
2022-12-14T00:36:14.066Z,57.10
2022-12-14T00:38:41.497Z,44.15
2022-12-14T00:41:09.660Z,52.70
2022-12-14T00:43:36.574Z,54.13
2022-12-14T00:46:05.380Z,56.45
2022-12-14T00:48:33.127Z,52.55
2022-12-14T00:51:00.608Z,62.83
2022-12-14T00:53:27.540Z,56.92
2022-12-14T00:55:54.278Z,57.97
2022-12-14T00:58:23.459Z,49.25
2022-12-14T01:01:08.226Z,60.58
2022-12-14T01:03:35.267Z,56.97
2022-12-14T01:06:02.521Z,51.25
2022-12-14T01:08:35.547Z,56.90
2022-12-14T01:11:10.138Z,57.85
2022-12-14T01:13:38.080Z,56.22
2022-12-14T01:16:11.472Z,60.65
2022-12-14T01:18:39.589Z,63.40
2022-12-14T01:21:20.728Z,59.40
2022-12-14T01:23:48.600Z,60.28
2022-12-14T01:26:17.276Z,56.78
2022-12-14T01:28:45.633Z,58.55
2022-12-14T01:31:18.230Z,58.10
2022-12-14T01:33:45.473Z,62.03
2022-12-14T01:36:17.287Z,62.03
2022-12-14T01:38:44.962Z,63.10
2022-12-14T01:41:55.039Z,65.70
2022-12-14T01:44:21.784Z,70.65
2022-12-14T01:50:05.250Z,62.60
2022-12-14T01:52:41.234Z,65.70
2022-12-14T01:55:10.931Z,67.38
2022-12-14T01:57:48.259Z,65.35
2022-12-14T02:00:16.881Z,62.20
2022-12-14T02:02:56.003Z,72.38
2022-12-14T02:05:24.886Z,70.72
2022-12-14T02:07:53.946Z,71.63
2022-12-14T02:10:22.482Z,66.13
2022-12-14T02:12:55.770Z,60.70
2022-12-14T02:15:22.635Z,66.97
2022-12-14T02:17:49.412Z,66.20
2022-12-14T02:20:17.092Z,72.22
2022-12-14T02:23:22.487Z,60.05
2022-12-14T02:26:01.565Z,66.88
2022-12-14T02:29:06.074Z,66.55
2022-12-14T02:31:54.472Z,66.38
2022-12-14T02:34:33.198Z,65.07
2022-12-14T02:37:15.485Z,57.20
2022-12-14T02:39:53.939Z,62.85
2022-12-14T02:42:32.140Z,58.65
2022-12-14T02:45:06.105Z,66.30
2022-12-14T02:48:07.060Z,59.58
2022-12-14T02:50:39.582Z,61.17
2022-12-14T02:53:29.150Z,72.32
2022-12-14T02:56:01.671Z,60.78
2022-12-14T02:58:50.566Z,65.25
2022-12-14T03:01:23.848Z,61.55
2022-12-14T03:03:51.654Z,58.47
2022-12-14T03:06:27.087Z,63.10
2022-12-14T03:09:07.771Z,69.80
2022-12-14T03:11:51.898Z,69.70
2022-12-14T03:14:34.323Z,63.17
2022-12-14T03:17:07.468Z,62.40
2022-12-14T03:19:53.034Z,64.65
2022-12-14T03:22:47.623Z,63.40
2022-12-14T03:25:20.974Z,58.05
2022-12-14T03:28:20.170Z,56.22
2022-12-14T03:31:01.221Z,54.60
2022-12-14T03:33:31.252Z,65.38
2022-12-14T03:36:13.650Z,54.35
2022-12-14T03:38:43.811Z,53.60
2022-12-14T03:41:20.382Z,38.67
2022-12-14T03:44:24.630Z,58.55
2022-12-14T03:46:51.368Z,69.80
2022-12-14T03:52:02.895Z,55.78
2022-12-14T03:54:47.035Z,55.97
2022-12-14T03:57:19.665Z,52.40
2022-12-14T04:00:09.095Z,50.05
2022-12-14T04:03:16.981Z,48.33
2022-12-14T04:05:49.699Z,51.95
2022-12-14T04:08:23.294Z,60.63
2022-12-14T04:11:12.925Z,56.92
2022-12-14T04:14:09.992Z,57.33
2022-12-14T04:17:00.987Z,59.20
2022-12-14T04:19:36.383Z,64.68
2022-12-14T04:22:07.595Z,56.55
2022-12-14T04:25:04.997Z,65.78
2022-12-14T04:27:37.483Z,59.33
2022-12-14T04:30:06.822Z,63.67
2022-12-14T04:32:44.648Z,76.55
2022-12-14T04:35:33.698Z,71.78
2022-12-14T04:38:15.588Z,71.07
2022-12-14T04:40:49.752Z,69.57
2022-12-14T04:43:29.629Z,66.38
2022-12-14T04:46:06.588Z,65.80
2022-12-14T04:48:57.418Z,60.50
2022-12-14T04:51:46.903Z,71.75
2022-12-14T04:54:23.614Z,58.80
2022-12-14T04:57:00.902Z,64.65
2022-12-14T05:02:28.797Z,68.38
2022-12-14T05:05:10.646Z,70.95
2022-12-14T05:08:08.299Z,69.13
2022-12-14T05:10:44.663Z,53.30
2022-12-14T05:13:20.843Z,56.43
2022-12-14T05:15:53.929Z,70.15
2022-12-14T05:18:22.039Z,61.40
2022-12-14T05:20:49.611Z,72.45
2022-12-14T05:23:17.074Z,58.88
2022-12-14T05:25:44.186Z,76.18
2022-12-14T05:28:12.277Z,80.68
2022-12-14T05:30:39.418Z,69.93
2022-12-14T05:33:06.227Z,65.07
2022-12-14T05:35:33.001Z,71.32
2022-12-14T05:38:00.093Z,73.03
2022-12-14T05:40:27.000Z,70.00
2022-12-14T05:43:04.714Z,66.28
2022-12-14T05:45:31.572Z,69.80
2022-12-14T05:47:58.277Z,70.43
2022-12-14T05:50:25.143Z,69.22
2022-12-14T05:52:52.861Z,68.03
2022-12-14T05:55:19.718Z,66.60
2022-12-14T05:57:46.448Z,69.05
2022-12-14T06:00:13.890Z,63.40
2022-12-14T06:02:40.632Z,62.05
2022-12-14T06:05:07.691Z,75.25
2022-12-14T06:07:34.389Z,67.53
2022-12-14T06:12:27.728Z,65.97
2022-12-14T06:14:54.510Z,65.43
2022-12-14T06:19:49.853Z,59.42
2022-12-14T06:22:17.852Z,67.30
2022-12-14T06:24:44.564Z,68.78
2022-12-14T08:23:58.812Z,70.35
2022-12-14T08:26:30.172Z,63.20
2022-12-14T08:29:02.202Z,56.10
2022-12-14T08:31:29.490Z,66.88
2022-12-14T08:33:58.684Z,56.05
2022-12-14T08:36:30.808Z,77.40
2022-12-14T08:38:59.907Z,68.13
2022-12-14T08:41:27.373Z,62.45
2022-12-14T08:43:59.413Z,72.55
2022-12-14T08:46:27.985Z,66.35
2022-12-14T08:48:55.618Z,63.95
2022-12-14T08:51:23.750Z,64.30
2022-12-14T08:53:50.806Z,62.97
2022-12-14T08:56:20.649Z,58.47
2022-12-14T08:58:47.720Z,65.80
2022-12-14T09:01:20.844Z,70.57
2022-12-14T09:03:48.514Z,75.05
2022-12-14T09:06:20.712Z,68.82
2022-12-14T09:08:49.940Z,67.85
2022-12-14T09:11:18.939Z,63.83
2022-12-14T09:13:46.593Z,69.65
2022-12-14T09:16:16.471Z,75.55
2022-12-14T09:18:43.489Z,75.70
2022-12-14T09:21:10.482Z,81.43
2022-12-14T09:23:37.951Z,100.60
2022-12-14T09:26:08.598Z,74.10
2022-12-14T09:28:37.476Z,81.13
2022-12-14T09:31:07.183Z,102.35
2022-12-14T09:33:34.434Z,89.97
2022-12-14T09:36:07.028Z,85.28
2022-12-14T09:38:35.990Z,82.20
2022-12-14T09:41:07.533Z,94.10
2022-12-14T09:43:42.200Z,89.00
2022-12-14T09:46:39.800Z,68.07
2022-12-14T09:49:25.752Z,59.33
2022-12-14T09:51:55.157Z,78.40
2022-12-14T09:54:33.057Z,83.53
2022-12-14T09:57:19.202Z,82.18
2022-12-14T09:59:45.924Z,66.07
2022-12-14T10:05:24.750Z,76.03
2022-12-14T10:07:57.299Z,74.53
2022-12-14T10:10:44.288Z,68.97
2022-12-14T10:13:29.194Z,70.83
2022-12-14T10:16:18.837Z,80.13
2022-12-14T10:19:12.536Z,66.47
2022-12-14T10:21:51.062Z,60.88
2022-12-14T10:24:22.781Z,64.68
2022-12-14T10:26:54.983Z,58.38
2022-12-14T10:29:32.648Z,59.28
2022-12-14T10:32:21.237Z,69.78
2022-12-14T10:34:48.464Z,45.75
2022-12-14T10:37:32.213Z,34.38
2022-12-14T10:40:31.147Z,29.40
2022-12-14T10:43:22.017Z,30.00
2022-12-14T10:45:56.452Z,24.73
2022-12-14T10:48:42.182Z,25.58
2022-12-14T10:51:41.677Z,29.52
2022-12-14T10:54:17.382Z,28.92
2022-12-14T10:56:49.947Z,29.20
2022-12-14T10:59:26.239Z,34.47
2022-12-14T11:02:01.125Z,31.48
2022-12-14T11:04:36.178Z,27.60
2022-12-14T11:07:07.764Z,26.60
2022-12-14T11:09:34.726Z,23.35
2022-12-14T11:12:07.661Z,19.70
2022-12-14T11:14:37.615Z,20.95
2022-12-14T11:17:05.412Z,23.25
2022-12-14T11:19:32.306Z,25.65
2022-12-14T11:22:20.298Z,16.48
2022-12-14T11:24:51.341Z,17.75
2022-12-14T11:27:21.029Z,15.45
2022-12-14T11:29:50.363Z,16.55
2022-12-14T11:32:24.198Z,26.15
2022-12-14T11:34:57.290Z,18.98
2022-12-14T11:37:30.715Z,22.88
2022-12-14T11:40:03.937Z,17.27
2022-12-14T11:42:30.823Z,13.43
2022-12-14T11:45:19.319Z,15.50
2022-12-14T11:47:46.068Z,10.75
2022-12-14T11:50:25.226Z,9.38
2022-12-14T11:53:07.838Z,13.80
2022-12-14T11:55:41.035Z,9.10
2022-12-14T11:58:20.507Z,10.23
2022-12-14T12:00:58.780Z,10.82
2022-12-14T12:03:33.888Z,9.65
2022-12-14T12:06:11.076Z,8.07
2022-12-14T12:08:40.289Z,8.32
2022-12-14T12:11:19.621Z,8.80
2022-12-14T12:13:50.897Z,6.22
2022-12-14T12:16:21.809Z,5.97
2022-12-14T12:18:51.098Z,6.97
2022-12-14T12:21:32.617Z,5.57
2022-12-14T12:24:24.781Z,4.75
2022-12-14T12:26:57.773Z,5.60
2022-12-14T12:29:48.028Z,5.95
2022-12-14T12:32:19.698Z,6.60
2022-12-14T12:34:49.576Z,7.32
2022-12-14T12:37:29.643Z,4.95
2022-12-14T12:40:02.641Z,5.93
2022-12-14T12:43:10.479Z,7.22
2022-12-14T12:45:45.610Z,14.73
2022-12-14T12:48:34.728Z,41.45
2022-12-14T12:51:07.073Z,49.22
2022-12-14T12:53:45.505Z,48.35
2022-12-14T12:56:17.325Z,38.30
2022-12-14T12:58:52.162Z,48.85
2022-12-14T13:01:22.542Z,39.00
2022-12-14T13:03:53.160Z,44.85
2022-12-14T13:06:29.906Z,52.70
2022-12-14T13:09:06.099Z,46.85
2022-12-14T13:11:38.214Z,46.83
2022-12-14T13:14:27.994Z,51.38
2022-12-14T13:16:55.549Z,44.83
2022-12-14T13:19:54.398Z,37.97
2022-12-14T13:22:28.607Z,44.28
2022-12-14T13:25:00.004Z,49.60
2022-12-14T13:27:33.649Z,49.58
2022-12-14T13:30:23.010Z,51.50
2022-12-14T13:33:27.336Z,45.72
2022-12-14T13:36:18.089Z,43.90
2022-12-14T13:39:03.564Z,46.80
2022-12-14T13:41:42.540Z,46.97
2022-12-14T13:44:38.621Z,52.75
2022-12-14T13:47:16.354Z,49.55
2022-12-14T13:50:26.937Z,43.97
2022-12-14T13:55:30.817Z,49.88
2022-12-14T13:58:34.083Z,44.58
2022-12-14T14:01:15.503Z,43.90
2022-12-14T14:03:46.513Z,44.10
2022-12-14T14:06:32.866Z,45.58
2022-12-14T14:09:19.764Z,52.20
2022-12-14T14:11:58.399Z,60.67
2022-12-14T14:14:51.721Z,59.30
2022-12-14T14:17:39.923Z,59.80
2022-12-14T14:20:42.150Z,62.28
2022-12-14T14:23:15.357Z,55.13
2022-12-14T14:26:10.459Z,54.95
2022-12-14T14:28:38.053Z,54.92
2022-12-14T14:31:05.767Z,48.33
2022-12-14T14:33:49.500Z,43.28
2022-12-14T14:36:33.504Z,48.13
2022-12-14T14:39:24.574Z,48.38
2022-12-14T14:41:54.186Z,42.88
2022-12-14T14:44:48.165Z,41.75
2022-12-14T14:47:29.365Z,44.22
2022-12-14T14:50:08.192Z,39.70
2022-12-14T14:52:38.297Z,30.40
2022-12-14T14:55:53.208Z,34.65
2022-12-14T14:58:37.428Z,49.63
2022-12-14T15:01:28.221Z,67.53
2022-12-14T15:03:57.058Z,68.40
2022-12-14T15:06:36.802Z,74.68
2022-12-14T15:09:07.253Z,66.82
2022-12-14T15:11:48.808Z,81.63
2022-12-14T15:14:33.068Z,80.60
2022-12-14T15:17:12.344Z,62.50
2022-12-14T15:19:39.359Z,51.13
2022-12-14T15:22:09.207Z,57.22
2022-12-14T15:24:41.920Z,55.38
2022-12-14T15:27:34.756Z,51.55
2022-12-14T15:30:10.772Z,53.78
2022-12-14T15:32:47.465Z,50.13
2022-12-14T15:35:23.164Z,49.00
2022-12-14T15:37:56.425Z,44.08
2022-12-14T15:40:30.188Z,38.22
2022-12-14T15:42:59.399Z,31.95
2022-12-14T15:45:29.753Z,30.00
2022-12-14T15:48:11.921Z,29.38
2022-12-14T15:50:43.708Z,32.95
2022-12-14T15:53:20.165Z,36.05
2022-12-14T15:56:00.310Z,40.53
2022-12-14T15:58:28.711Z,39.97
2022-12-14T16:01:01.025Z,25.88
2022-12-14T16:03:30.052Z,27.58
2022-12-14T16:05:58.107Z,27.45
2022-12-14T16:08:25.340Z,25.23
2022-12-14T16:10:55.190Z,24.35
2022-12-14T16:13:39.179Z,25.70
2022-12-14T16:16:13.786Z,19.55
2022-12-14T16:18:50.877Z,30.40
2022-12-14T16:21:33.386Z,37.97
2022-12-14T16:24:13.171Z,31.60
2022-12-14T16:26:40.040Z,36.15
2022-12-14T16:29:09.143Z,39.67
2022-12-14T16:31:37.428Z,49.20
2022-12-14T16:34:27.444Z,41.85
2022-12-14T16:37:30.830Z,39.40
2022-12-14T16:39:49.486Z,32.20
2022-12-14T16:42:24.987Z,34.60
2022-12-14T16:44:55.189Z,50.30
2022-12-14T16:47:34.160Z,37.60
2022-12-14T16:50:01.045Z,43.78
2022-12-14T16:52:33.166Z,33.70
2022-12-14T16:55:20.431Z,30.83
2022-12-14T16:57:58.478Z,25.15
2022-12-14T17:00:31.500Z,22.00
2022-12-14T17:03:04.096Z,19.20
2022-12-14T17:05:37.184Z,31.77
2022-12-14T17:08:05.502Z,25.17
2022-12-14T17:10:33.129Z,23.45
2022-12-14T17:13:01.790Z,24.65
2022-12-14T17:15:32.225Z,27.40
2022-12-14T17:18:00.964Z,20.50
2022-12-14T17:20:39.104Z,28.85
2022-12-14T17:23:08.743Z,22.17
2022-12-14T17:25:36.347Z,33.83
2022-12-14T17:28:03.693Z,27.85
2022-12-14T17:30:30.581Z,34.05
2022-12-14T17:32:57.908Z,33.30
2022-12-14T17:35:29.497Z,26.95
2022-12-14T17:37:56.910Z,38.53
2022-12-14T17:40:24.334Z,39.13
2022-12-14T17:42:56.759Z,37.65
2022-12-14T17:45:28.955Z,43.25
2022-12-14T17:47:56.490Z,33.95
2022-12-14T17:50:23.611Z,55.53
2022-12-14T17:52:50.579Z,45.05
2022-12-14T17:55:23.119Z,47.13
2022-12-14T17:57:50.480Z,54.40
2022-12-14T18:00:38.884Z,53.38
2022-12-14T18:03:06.736Z,37.40
2022-12-14T18:05:33.865Z,34.13
2022-12-14T18:08:00.574Z,32.65
2022-12-14T18:10:28.152Z,31.10
2022-12-14T18:12:55.617Z,25.33
2022-12-14T18:15:31.278Z,23.27
2022-12-14T18:17:58.149Z,25.50
2022-12-14T18:22:52.107Z,40.75
2022-12-14T18:25:37.543Z,56.08
2022-12-14T18:28:06.200Z,64.78
2022-12-14T18:30:40.545Z,56.30
2022-12-14T18:33:18.092Z,52.15
2022-12-14T18:35:46.433Z,51.17
2022-12-14T18:38:13.462Z,43.90
2022-12-14T18:40:42.508Z,42.90
2022-12-14T18:43:17.029Z,33.72
2022-12-14T18:45:43.821Z,32.33
2022-12-14T18:50:42.684Z,36.67
2022-12-14T18:53:17.957Z,51.30
2022-12-14T18:55:44.886Z,32.45
2022-12-14T18:58:20.866Z,40.80
2022-12-14T19:00:48.426Z,26.85
2022-12-14T19:03:15.348Z,29.15
2022-12-14T19:05:43.365Z,27.98
2022-12-14T19:08:11.161Z,28.60
2022-12-14T19:10:41.356Z,41.58
2022-12-14T19:13:10.371Z,37.80
2022-12-14T19:15:37.127Z,53.58
2022-12-14T19:20:30.685Z,44.03
2022-12-14T19:22:57.680Z,57.75
2022-12-14T19:25:25.077Z,43.47
2022-12-14T19:30:39.282Z,34.80
2022-12-14T19:33:06.035Z,39.95
2022-12-14T19:35:32.972Z,32.67
2022-12-14T19:40:26.655Z,46.70
2022-12-14T19:42:53.564Z,33.95
2022-12-14T19:45:20.276Z,36.60
2022-12-14T19:47:47.003Z,41.42
2022-12-14T19:52:41.618Z,35.42
2022-12-14T19:55:09.144Z,32.47
2022-12-14T19:57:36.778Z,39.65
2022-12-14T20:00:05.464Z,30.58
2022-12-14T20:02:37.360Z,35.65
2022-12-14T20:05:05.363Z,32.08
2022-12-14T20:07:32.151Z,29.75
2022-12-14T20:12:25.563Z,44.83
2022-12-14T20:17:18.907Z,55.00
2022-12-14T20:19:45.632Z,66.75
2022-12-14T20:24:42.361Z,68.05
2022-12-14T20:27:09.141Z,64.75
2022-12-14T20:29:37.120Z,102.20
2022-12-14T20:32:03.962Z,118.43
2022-12-14T20:34:30.767Z,103.63
2022-12-14T20:39:24.089Z,113.70
2022-12-14T20:41:50.872Z,119.40
2022-12-14T20:44:17.745Z,130.48
2022-12-14T20:46:46.364Z,161.02
2022-12-14T20:49:16.000Z,130.23
2022-12-14T20:51:44.233Z,135.52
2022-12-14T20:54:14.316Z,150.23
2022-12-14T20:56:41.187Z,122.35
2022-12-14T21:01:38.160Z,102.20
2022-12-14T21:04:05.776Z,105.25
2022-12-14T21:06:33.305Z,86.32
2022-12-14T21:09:09.475Z,69.68
2022-12-14T21:12:03.756Z,72.63
2022-12-14T21:14:33.513Z,74.95
2022-12-14T21:17:01.071Z,77.95
2022-12-14T21:19:28.140Z,65.18
2022-12-14T21:21:54.946Z,60.45
2022-12-14T21:27:14.822Z,74.15
2022-12-14T21:29:41.516Z,79.97
2022-12-14T21:32:08.303Z,71.95
2022-12-14T21:34:35.057Z,72.88
2022-12-14T21:37:01.704Z,60.78
2022-12-14T21:42:10.370Z,60.17
2022-12-14T21:44:38.604Z,61.28
2022-12-14T21:47:08.404Z,93.43
2022-12-14T21:49:39.982Z,81.43
2022-12-14T21:52:07.949Z,77.50
2022-12-14T21:54:35.143Z,121.65
2022-12-14T21:57:20.465Z,94.85
2022-12-14T21:59:47.458Z,102.50
2022-12-14T22:02:23.026Z,85.63
2022-12-14T22:04:50.351Z,112.07
2022-12-14T22:07:19.203Z,88.50
2022-12-14T22:09:49.443Z,105.18
2022-12-14T22:12:17.888Z,112.45
2022-12-14T22:14:44.639Z,68.70
2022-12-14T22:19:38.068Z,71.93
2022-12-14T22:22:05.124Z,62.10
2022-12-14T22:24:32.080Z,70.05
2022-12-14T22:26:59.376Z,51.83
2022-12-14T22:29:26.320Z,47.25
2022-12-14T22:31:53.090Z,55.55
2022-12-14T22:34:22.681Z,63.75
2022-12-14T22:36:50.907Z,55.72
2022-12-14T22:39:18.600Z,40.22
2022-12-14T22:41:45.949Z,41.38
2022-12-14T22:44:13.115Z,40.67
2022-12-14T22:46:40.640Z,38.42
2022-12-14T22:49:08.510Z,35.75
2022-12-14T22:51:35.514Z,50.08
2022-12-14T22:54:02.683Z,43.15
2022-12-14T22:56:40.088Z,61.75
2022-12-14T22:59:15.392Z,73.28
2022-12-14T23:01:43.510Z,97.63
2022-12-14T23:04:16.751Z,74.05
2022-12-14T23:06:43.530Z,69.80
2022-12-14T23:12:18.251Z,59.47
2022-12-14T23:15:06.622Z,58.05
2022-12-14T23:17:51.999Z,64.10
2022-12-14T23:20:37.573Z,94.20
2022-12-14T23:23:27.199Z,84.95
2022-12-14T23:26:12.796Z,60.53
2022-12-14T23:28:58.332Z,80.28
2022-12-14T23:31:43.824Z,43.78
2022-12-14T23:34:29.166Z,35.92
2022-12-14T23:37:19.723Z,40.75
2022-12-14T23:40:06.353Z,82.35
2022-12-14T23:42:51.669Z,19.23
2022-12-14T23:45:37.135Z,53.85
2022-12-14T23:48:22.650Z,22.85
2022-12-14T23:51:08.178Z,553.45
2022-12-14T23:53:53.860Z,365.42
2022-12-14T23:56:39.798Z,28.40
2022-12-14T23:59:31.518Z,18.33
